• Join FlightAware (Why Join?)
  • Login
  • US Flag 
01:24PM EDT


 

Airport Tracker/Info


-or-


 

Live Flight TrackerFlight Track Log ✈ UAL3744 ✈ 22-Apr-2013 ✈ KIAD - KDFW

Flight Track Log - Related Links

Times and Time Zones

All times are in EDT time to prevent confusion due to time zone crossing. See the UAL3744 flight status page for this flight to view local times or setup timezone preferences in your user account.

Time Position Orientation Groundspeed Altitude Reporting Facility
EDT Latitude Longitude Course Direction KTS MPH feet Rate Location/Type
08:31AM 38.9333 -77.5500 288° West 219 252 2,400  Level Potomac TRACON
08:32AM 38.9086 -77.6325 249° West 268 308 4,100 2,760 Climbing Washington Center
08:33AM 38.8883 -77.7197 253° West 274 315 7,400 2,820 Climbing Washington Center
08:34AM 38.8472 -77.7986 236° Southwest 274 315 9,800 2,100 Climbing Washington Center
08:35AM 38.8411 -77.9050 266° West 280 322 11,700 1,800 Climbing Washington Center
08:36AM 38.8472 -78.0197 274° West 304 350 13,500 2,100 Climbing Washington Center
08:37AM 38.8442 -78.1768 288° West  Level FlightAware Approximate
08:37AM 38.8511 -78.1347 273° West 317 365 16,000  Level Washington Center
08:38AM 38.8547 -78.2547 272° West 333 383 17,000 1,020 Climbing Washington Center
08:39AM 38.8519 -78.3744 268° West 333 383 18,100 1,380 Climbing Washington Center
08:40AM 38.8511 -78.4997 270° West 343 395 19,800 1,680 Climbing Washington Center
08:41AM 38.8500 -78.6278 269° West 349 402 21,500 1,500 Climbing Washington Center
08:42AM 38.8489 -78.7556 269° West 362 417 22,900 1,380 Climbing Washington Center
08:43AM 38.8475 -78.8861 269° West 362 417 24,300 1,260 Climbing Washington Center
08:44AM 38.8458 -79.0219 269° West 368 423 25,500 1,140 Climbing Washington Center
08:45AM 38.8417 -79.1578 268° West 378 435 26,600 1,080 Climbing Washington Center
08:46AM 38.8250 -79.2956 261° West 383 441 27,700 780 Climbing Washington Center
08:47AM 38.7978 -79.4328 256° West 388 447 28,200 600 Climbing Washington Center
08:48AM 38.7744 -79.5781 258° West 400 460 29,000 780 Climbing Washington Center
08:49AM 38.7511 -79.7072 257° West 414 476 29,800 1,080 Climbing Washington Center
08:50AM 38.7256 -79.8467 257° West 414 476 31,200 1,020 Climbing Washington Center
08:51AM 38.6956 -79.9808 254° West 409 471 31,900 600 Climbing Washington Center
08:52AM 38.6228 -80.0906 230° Southwest 394 453 32,500 720 Climbing Washington Center
08:53AM 38.5331 -80.2047 225° Southwest 404 465 33,400 1,140 Climbing Washington Center
08:55AM 38.4761 -80.4206 251° West 372 428 35,800 900 Climbing Indianapolis Center
08:56AM 38.4642 -80.5583 264° West 373 429 36,000 60 Climbing Indianapolis Center
08:57AM 38.4522 -80.6956 264° West 386 444 36,000  Level Indianapolis Center
08:58AM 38.4392 -80.8372 263° West 399 459 36,000  Level Indianapolis Center
08:59AM 38.4253 -80.9808 263° West 407 468 36,000  Level Indianapolis Center
09:00AM 38.4128 -81.1217 264° West 400 460 36,000  Level Indianapolis Center
09:01AM 38.3989 -81.2594 263° West 391 450 36,000  Level Indianapolis Center
09:02AM 38.3856 -81.3975 263° West 388 447 36,000  Level Indianapolis Center
09:03AM 38.3719 -81.5383 263° West 395 455 36,000  Level Indianapolis Center
09:04AM 38.3581 -81.6814 263° West 401 461 36,000  Level Indianapolis Center
09:05AM 38.3361 -81.8233 259° West 404 465 36,000  Level Indianapolis Center
09:06AM 38.2892 -81.9867 250° West 409 471 36,000  Level Indianapolis Center
09:07AM 38.2497 -82.1239 250° West 410 472 36,000  Level Indianapolis Center
09:08AM 38.2111 -82.2644 251° West 418 481 36,000  Level Indianapolis Center
09:09AM 38.1714 -82.4019 250° West 416 479 36,000  Level Indianapolis Center
09:10AM 38.1308 -82.5406 250° West 417 480 36,000  Level Indianapolis Center
09:11AM 38.0919 -82.6797 250° West 418 481 36,000  Level Indianapolis Center
09:12AM 38.0522 -82.8167 250° West 416 479 36,000  Level Indianapolis Center
09:14AM 38.0047 -82.9797 250° West 421 484 36,000  Level Indianapolis Center
09:15AM 37.9644 -83.1158 249° West 412 474 36,000  Level Indianapolis Center
09:16AM 37.9236 -83.2558 250° West 421 484 36,000  Level Indianapolis Center
09:17AM 37.8833 -83.3936 250° West 419 482 36,000  Level Indianapolis Center
09:18AM 37.8419 -83.5303 249° West 416 479 36,000  Level Indianapolis Center
09:19AM 37.8017 -83.6681 250° West 416 479 36,000  Level Indianapolis Center
09:20AM 37.7531 -83.8267 249° West 416 479 36,000  Level Indianapolis Center
09:21AM 37.7139 -83.9619 250° West 412 474 36,000  Level Indianapolis Center
09:22AM 37.6711 -84.0967 248° West 413 475 36,000  Level Indianapolis Center
09:23AM 37.6303 -84.2328 249° West 413 475 36,000  Level Indianapolis Center
09:24AM 37.5883 -84.3667 248° West 412 474 36,000  Level Indianapolis Center
09:25AM 37.5400 -84.5256 249° West 416 479 36,000  Level Indianapolis Center
09:26AM 37.4975 -84.6614 249° West 418 481 36,000  Level Indianapolis Center
09:27AM 37.4550 -84.7992 249° West 420 483 36,000  Level Indianapolis Center
09:28AM 37.4133 -84.9367 249° West 420 483 36,000  Level Indianapolis Center
09:29AM 37.3697 -85.0747 248° West 423 487 36,000  Level Indianapolis Center
09:30AM 37.3250 -85.2142 248° West 429 494 36,000  Level Indianapolis Center
09:31AM 37.2739 -85.3747 248° West 426 490 36,000  Level Indianapolis Center
09:32AM 37.2286 -85.5167 248° West 423 487 36,000  Level Indianapolis Center
09:33AM 37.1842 -85.6567 248° West 427 491 36,000  Level Indianapolis Center
09:34AM 37.1472 -85.7767 249° West 423 487 36,000  Level Memphis Center
09:35AM 37.1022 -85.9119 247° West 418 481 36,000  Level Memphis Center
09:36AM 37.0592 -86.0469 248° West 424 488 36,000  Level Memphis Center
09:37AM 37.0136 -86.1794 247° West 419 482 36,000  Level Memphis Center
09:38AM 36.9700 -86.3142 248° West 424 488 36,000  Level Memphis Center
09:39AM 36.9244 -86.4514 247° West 424 488 36,000  Level Memphis Center
09:40AM 36.8767 -86.5858 246° West 424 488 36,000  Level Memphis Center
09:41AM 36.8267 -86.7283 246° West 419 482 36,000  Level Memphis Center
09:42AM 36.7764 -86.8625 245° Southwest 424 488 36,000  Level Memphis Center
09:43AM 36.7300 -86.9967 247° West 424 488 36,000  Level Memphis Center
09:44AM 36.6814 -87.1281 245° Southwest 424 488 36,000  Level Memphis Center
09:45AM 36.6328 -87.2619 246° West 424 488 36,000  Level Memphis Center
09:46AM 36.5839 -87.3956 246° West 424 488 36,000  Level Memphis Center
09:47AM 36.5347 -87.5239 245° Southwest 424 488 36,000  Level Memphis Center
09:48AM 36.4856 -87.6572 245° Southwest 424 488 36,000  Level Memphis Center
09:49AM 36.4364 -87.7903 245° Southwest 429 494 36,000  Level Memphis Center
09:50AM 36.3867 -87.9183 244° Southwest 424 488 36,000  Level Memphis Center
09:51AM 36.3392 -88.0486 246° West 424 488 36,000  Level Memphis Center
09:52AM 36.2975 -88.1631 246° West 424 488 36,000  Level Memphis Center
09:53AM 36.2436 -88.3033 245° Southwest 424 488 36,000  Level Memphis Center
09:54AM 36.1917 -88.4358 244° Southwest 424 488 36,000  Level Memphis Center
09:55AM 36.1414 -88.5656 244° Southwest 424 488 36,000  Level Memphis Center
09:56AM 36.0911 -88.6953 244° Southwest 424 488 36,000  Level Memphis Center
09:57AM 36.0406 -88.8244 244° Southwest 429 494 36,000  Level Memphis Center
09:58AM 35.9900 -88.9511 244° Southwest 429 494 36,000  Level Memphis Center
09:59AM 35.9394 -89.0828 245° Southwest 424 488 36,000  Level Memphis Center
10:00AM 35.8906 -89.2092 245° Southwest 424 488 36,000  Level Memphis Center
10:01AM 35.8417 -89.3403 245° Southwest 424 488 36,000  Level Memphis Center
10:02AM 35.7883 -89.4664 242° Southwest 424 488 36,000  Level Memphis Center
10:03AM 35.7372 -89.5950 244° Southwest 424 488 36,000  Level Memphis Center
10:04AM 35.6981 -89.6975 245° Southwest 424 488 36,000  Level Memphis Center
10:05AM 35.6486 -89.8383 247° West 413 475 36,000  Level Memphis Center
10:06AM 35.5928 -89.9767 244° Southwest 413 475 36,000  Level Memphis Center
10:07AM 35.5411 -90.1044 244° Southwest 418 481 36,000  Level Memphis Center
10:08AM 35.4911 -90.2322 244° Southwest 423 487 36,000  Level Memphis Center
10:09AM 35.4392 -90.3622 244° Southwest 423 487 36,000  Level Memphis Center
10:10AM 35.3869 -90.4919 244° Southwest 423 487 36,000  Level Memphis Center
10:11AM 35.3325 -90.6142 241° Southwest 423 487 36,000  Level Memphis Center
10:12AM 35.2822 -90.7436 245° Southwest 423 487 36,000  Level Memphis Center
10:13AM 35.2294 -90.8706 243° Southwest 423 487 36,000  Level Memphis Center
10:14AM 35.1789 -90.9922 243° Southwest 423 487 36,000  Level Memphis Center
10:15AM 35.1281 -91.1161 243° Southwest 409 471 36,000  Level Memphis Center
10:16AM 35.0772 -91.2400 243° Southwest 404 465 36,000  Level Memphis Center
10:17AM 35.0264 -91.3639 243° Southwest 404 465 36,000  Level Memphis Center
10:18AM 34.9731 -91.4747 240° Southwest 397 457 36,000  Level Memphis Center
10:19AM 34.9242 -91.5956 244° Southwest 392 451 36,000  Level Memphis Center
10:20AM 34.8811 -91.7089 245° Southwest 401 461 36,000  Level Memphis Center
10:21AM 34.8233 -91.8369 241° Southwest 401 461 36,000  Level Memphis Center
10:22AM 34.7719 -91.9575 243° Southwest 401 461 36,000  Level Memphis Center
10:23AM 34.7222 -92.0778 243° Southwest 401 461 36,000  Level Memphis Center
10:24AM 34.6769 -92.1831 242° Southwest 401 461 36,000  Level Memphis Center
10:25AM 34.6439 -92.3058 252° West 396 456 36,000  Level Memphis Center
10:26AM 34.6106 -92.4314 252° West 391 450 36,000  Level Memphis Center
10:27AM 34.5769 -92.5567 252° West 386 444 36,000  Level Memphis Center
10:28AM 34.5436 -92.6794 252° West 386 444 36,000  Level Memphis Center
10:29AM 34.5119 -92.8019 253° West 381 438 36,000  Level Memphis Center
10:30AM 34.4783 -92.9219 251° West 381 438 36,000  Level Memphis Center
10:31AM 34.4464 -93.0419 252° West 387 445 36,000  Level Memphis Center
10:32AM 34.4144 -93.1692 253° West 382 440 36,000  Level Memphis Center
10:33AM 34.3806 -93.2889 251° West 382 440 36,000  Level Memphis Center
10:34AM 34.3553 -93.3936 254° West 382 440 36,000  Level Fort Worth Center
10:35AM 34.3214 -93.5158 251° West 370 426 36,000  Level Fort Worth Center
10:36AM 34.2897 -93.6356 252° West 375 432 36,000  Level Fort Worth Center
10:37AM 34.2558 -93.7575 251° West 375 432 36,000  Level Fort Worth Center
10:38AM 34.2217 -93.8797 251° West 381 438 36,000  Level Fort Worth Center
10:39AM 34.1894 -93.9989 252° West 386 444 36,000  Level Fort Worth Center
10:40AM 34.1553 -94.1208 251° West 386 444 36,000 -60 Level Fort Worth Center
10:41AM 34.1208 -94.2400 251° West 391 450 35,900 -840 Descending Fort Worth Center
10:42AM 34.0842 -94.3642 250° West 391 450 34,400 -1,500 Descending Fort Worth Center
10:43AM 34.0475 -94.4933 251° West 391 450 33,000 -1,500 Descending Fort Worth Center
10:44AM 34.0131 -94.6222 252° West 396 456 31,500 -1,560 Descending Fort Worth Center
10:45AM 33.9742 -94.7511 250° West 402 463 29,900 -1,500 Descending Fort Worth Center
10:46AM 33.9372 -94.8825 251° West 410 472 28,500 -1,500 Descending Fort Worth Center
10:47AM 33.8936 -95.0089 247° West 410 472 27,000 -1,560 Descending Fort Worth Center
10:48AM 33.8500 -95.1350 247° West 410 472 25,400 -1,500 Descending Fort Worth Center
10:49AM 33.8083 -95.2561 248° West 410 472 24,000 -1,200 Descending Fort Worth Center
10:50AM 33.7644 -95.3747 246° West 403 464 23,000 -1,260 Descending Fort Worth Center
10:51AM 33.7225 -95.4956 247° West 397 457 21,500 -1,500 Descending Fort Worth Center
10:52AM 33.6867 -95.6136 250° West 397 457 20,100 -1,500 Descending Fort Worth Center
10:53AM 33.6403 -95.7319 245° Southwest 397 457 18,500 -1,620 Descending Fort Worth Center
10:54AM 33.6022 -95.8447 248° West 387 445 16,900 -1,740 Descending Fort Worth Center
10:55AM 33.5597 -95.9553 245° Southwest 375 432 15,100 -1,740 Descending Fort Worth Center
10:56AM 33.5253 -96.0556 248° West 370 426 13,500 -1,740 Descending Fort Worth Center
10:57AM 33.4828 -96.1731 247° West 358 412 11,700 -1,260 Descending Fort Worth Center
10:58AM 33.4461 -96.2683 245° Southwest 358 412 11,000 -360 Descending Fort Worth Center
10:59AM 33.4072 -96.3783 247° West 350 403 11,000  Level Fort Worth Center
11:00AM 33.3619 -96.4458 231° Southwest 305 351 11,000 -240 Level Fort Worth Center
11:01AM 33.3019 -96.5161 224° Southwest 285 328 10,600 -900 Descending Fort Worth Center
11:02AM 33.2544 -96.5886 232° Southwest 277 319 9,300 -1,320 Descending Fort Worth Center
11:03AM 33.2361 -96.6658 254° West 272 313 8,000 -1,500 Descending Fort Worth Center
11:04AM 33.2136 -96.7628 255° West 272 313 6,400 -1,020 Descending Fort Worth Center
11:05AM 33.1994 -96.8375 257° West 272 313 6,000 -240 Descending Fort Worth Center
11:06AM 33.1811 -96.9219 255° West 272 313 6,000 -420 Level Fort Worth Center
11:07AM 33.1436 -96.9992 240° Southwest 252 290 5,200 -1,080 Descending Fort Worth Center
11:08AM 33.0894 -97.0267 203° Southwest 234 269 3,900 -1,260 Descending Fort Worth Center
11:09AM 33.0500 -97.0333 188° South 160 184 3,100 -780 Descending Dallas / Fort Worth TRACON
11:10AM 33.0167 -97.0333 180° South 122 140 2,500 -660 Descending Dallas / Fort Worth TRACON
11:11AM 32.9833 -97.0333 180° South 126 145 1,800 -720 Descending Dallas / Fort Worth TRACON
11:12AM 32.9500 -97.0333 180° South 125 144 1,200 -300 Descending Dallas / Fort Worth TRACON
11:14AM 32.8968 -97.0380 185° South  Level Estimated
11:16AM 32.9167 -96.9833 185° South 9 10 500  Level Dallas / Fort Worth TRACON
11:18AM 32.8833 -97.0333 185° South  Level FlightAware Approximate
11:21AM 32.8968 -97.0380 185° South  Level Estimated
11:25AM 32.8968 -97.0380 185° South  Level Estimated